Terminal Aerodrome Forecast
Issued by NWS

Home | Current Version | Previous Version | Text Only | Print | Product List | Glossary On
Versions: 1 2 3 4 5 6 7 8 9 10 11 12 13 14
000
FTUS46 KEKA 041734
TAFCEC
TAF
KCEC 041734Z 0418/0518 36005KT P6SM SKC
     FM042000 32010KT P6SM SKC
     FM042200 32017G27KT P6SM SKC
     FM050400 34007KT P6SM SCT035
     FM051000 05005KT P6SM FEW035
     FM051600 30004KT P6SM SKC=

USA.gov is the U.S. government's official web portal to all federal, state and local government web resources and services.